createdAt,value
2019-02-22T00:02:16.435Z,10.70
2019-02-22T00:07:21.810Z,9.97
2019-02-22T00:12:27.396Z,10.40
2019-02-22T00:17:33.524Z,11.10
2019-02-22T00:22:39.251Z,10.53
2019-02-22T00:27:45.175Z,10.50
2019-02-22T00:32:50.769Z,10.90
2019-02-22T00:37:56.419Z,10.43
2019-02-22T00:43:02.766Z,11.03
2019-02-22T00:48:08.429Z,10.80
2019-02-22T00:53:14.090Z,9.90
2019-02-22T00:58:19.733Z,10.47
2019-02-22T01:03:26.235Z,10.50
2019-02-22T01:08:31.680Z,10.67
2019-02-22T01:13:37.371Z,10.23
2019-02-22T01:18:42.760Z,10.93
2019-02-22T01:23:49.308Z,9.77
2019-02-22T01:28:55.037Z,10.50
2019-02-22T01:34:01.138Z,9.40
2019-02-22T01:39:06.714Z,10.83
2019-02-22T01:44:23.231Z,11.40
2019-02-22T01:49:29.091Z,11.60
2019-02-22T01:54:34.550Z,10.90
2019-02-22T01:59:40.448Z,11.87
2019-02-22T02:04:46.189Z,11.13
2019-02-22T02:09:52.062Z,11.33
2019-02-22T02:14:57.417Z,11.33
2019-02-22T02:20:02.889Z,11.07
2019-02-22T02:25:09.588Z,11.73
2019-02-22T02:30:15.439Z,10.90
2019-02-22T02:35:21.218Z,11.33
2019-02-22T02:40:26.636Z,10.53
2019-02-22T02:45:32.022Z,11.23
2019-02-22T02:50:37.636Z,10.90
2019-02-22T02:55:44.047Z,10.37
2019-02-22T03:00:50.145Z,10.90
2019-02-22T03:06:20.676Z,10.97
2019-02-22T03:11:26.449Z,11.40
2019-02-22T03:16:32.306Z,12.00
2019-02-22T03:21:37.980Z,11.97
2019-02-22T03:26:43.834Z,12.80
2019-02-22T03:31:49.709Z,13.07
2019-02-22T03:36:55.115Z,12.40
2019-02-22T03:42:00.938Z,12.43
2019-02-22T03:47:06.905Z,12.33
2019-02-22T03:52:44.216Z,12.00
2019-02-22T03:57:50.386Z,12.30
2019-02-22T04:02:55.789Z,13.53
2019-02-22T04:08:01.598Z,12.20
2019-02-22T04:13:07.113Z,12.83
2019-02-22T04:18:12.799Z,12.87
2019-02-22T04:23:18.498Z,12.47
2019-02-22T04:28:23.915Z,13.20
2019-02-22T04:33:29.609Z,12.70
2019-02-22T04:38:35.412Z,14.00
2019-02-22T04:43:41.034Z,14.13
2019-02-22T04:48:46.711Z,13.73
2019-02-22T04:53:52.874Z,13.83
2019-02-22T04:58:58.337Z,14.33
2019-02-22T05:04:04.099Z,14.50
2019-02-22T05:09:09.437Z,14.00
2019-02-22T05:14:14.769Z,15.53
2019-02-22T05:19:20.877Z,15.37
2019-02-22T05:24:26.570Z,15.57
2019-02-22T05:29:32.329Z,14.27
2019-02-22T05:34:38.092Z,15.30
2019-02-22T05:39:44.155Z,14.73
2019-02-22T05:44:50.339Z,14.57
2019-02-22T05:49:55.721Z,14.60
2019-02-22T05:55:01.139Z,15.73
2019-02-22T06:00:07.015Z,14.90
2019-02-22T06:05:12.354Z,15.47
2019-02-22T06:10:18.347Z,14.30
2019-02-22T06:15:24.019Z,13.30
2019-02-22T06:20:30.050Z,13.23
2019-02-22T06:25:35.738Z,12.53
2019-02-22T06:30:41.733Z,13.50
2019-02-22T06:35:47.867Z,14.07
2019-02-22T06:40:53.881Z,13.13
2019-02-22T06:45:59.934Z,12.27
2019-02-22T06:51:06.298Z,11.57
2019-02-22T06:56:11.644Z,12.23
2019-02-22T07:01:16.929Z,14.17
2019-02-22T07:06:22.305Z,12.27
2019-02-22T07:11:31.681Z,13.60
2019-02-22T07:16:37.094Z,13.27
2019-02-22T07:21:52.060Z,14.13
2019-02-22T07:26:49.870Z,13.47
2019-02-22T07:32:05.249Z,14.57
2019-02-22T07:37:02.584Z,15.13
2019-02-22T07:42:07.906Z,15.70
2019-02-22T07:47:13.840Z,16.37
2019-02-22T07:52:19.789Z,15.53
2019-02-22T07:57:25.680Z,15.33
2019-02-22T08:02:31.011Z,15.20
2019-02-22T08:07:37.304Z,15.90
2019-02-22T08:12:42.676Z,14.77
2019-02-22T08:17:48.635Z,14.50
2019-02-22T08:22:54.159Z,13.77
2019-02-22T08:27:59.852Z,13.20
2019-02-22T08:33:05.731Z,13.47
2019-02-22T08:38:11.517Z,13.10
2019-02-22T08:43:16.961Z,13.40
2019-02-22T08:48:22.444Z,13.53
2019-02-22T08:53:28.272Z,13.80
2019-02-22T08:58:34.047Z,13.30
2019-02-22T09:03:49.889Z,14.07
2019-02-22T09:08:47.824Z,16.33
2019-02-22T09:13:53.435Z,16.73
2019-02-22T09:18:58.862Z,13.23
2019-02-22T09:24:04.642Z,13.73
2019-02-22T09:29:10.063Z,13.20
2019-02-22T09:34:15.834Z,13.63
2019-02-22T09:39:21.805Z,11.47
2019-02-22T09:44:27.367Z,11.40
2019-02-22T09:49:33.138Z,11.27
2019-02-22T09:54:39.109Z,10.70
2019-02-22T09:59:45.094Z,10.70
2019-02-22T10:04:55.396Z,9.43
2019-02-22T10:09:58.763Z,10.23
2019-02-22T10:15:04.429Z,10.00
2019-02-22T10:20:10.196Z,9.43
2019-02-22T10:25:16.685Z,9.37
2019-02-22T10:30:22.017Z,9.80
2019-02-22T10:35:27.434Z,8.57
2019-02-22T10:40:33.149Z,10.20
2019-02-22T10:45:38.586Z,8.77
2019-02-22T10:50:44.029Z,8.30
2019-02-22T10:55:49.733Z,8.47
2019-02-22T11:00:55.491Z,7.87
2019-02-22T11:06:00.901Z,9.33
2019-02-22T11:11:06.609Z,9.63
2019-02-22T11:16:12.274Z,10.10
2019-02-22T11:21:18.261Z,11.67
2019-02-22T11:26:24.710Z,10.20
2019-02-22T11:31:30.194Z,9.63
2019-02-22T11:36:35.699Z,11.17
2019-02-22T11:41:41.607Z,10.40
2019-02-22T11:46:47.404Z,11.17
2019-02-22T11:51:52.842Z,10.23
2019-02-22T11:56:58.230Z,10.57
2019-02-22T12:02:03.991Z,10.80
2019-02-22T12:07:09.421Z,12.10
2019-02-22T12:12:15.907Z,10.67
2019-02-22T12:17:21.274Z,10.50
2019-02-22T12:22:27.142Z,12.60
2019-02-22T12:27:33.303Z,9.33
2019-02-22T12:32:39.539Z,10.07
2019-02-22T12:37:45.183Z,11.93
2019-02-22T12:42:50.654Z,12.80
2019-02-22T12:47:56.775Z,11.97
2019-02-22T12:53:03.278Z,12.03
2019-02-22T12:58:08.671Z,13.77
2019-02-22T13:03:14.382Z,12.70
2019-02-22T13:08:20.089Z,11.27
2019-02-22T13:13:25.909Z,13.33
2019-02-22T13:18:32.017Z,12.37
2019-02-22T13:23:37.759Z,13.30
2019-02-22T13:28:43.153Z,13.07
2019-02-22T13:33:48.547Z,12.13
2019-02-22T13:38:53.996Z,10.50
2019-02-22T13:43:59.416Z,8.40
2019-02-22T13:49:06.275Z,9.03
2019-02-22T13:54:12.257Z,9.87
2019-02-22T13:59:17.638Z,9.10
2019-02-22T14:04:23.435Z,8.20
2019-02-22T14:09:29.536Z,8.47
2019-02-22T14:14:35.315Z,8.73
2019-02-22T14:19:41.093Z,9.37
2019-02-22T14:24:46.386Z,8.57
2019-02-22T14:29:52.162Z,9.70
2019-02-22T14:34:57.511Z,8.23
2019-02-22T14:40:04.002Z,7.50
2019-02-22T14:45:10.482Z,8.80
2019-02-22T14:50:16.376Z,10.53
2019-02-22T14:55:21.781Z,9.10
2019-02-22T15:00:27.276Z,10.10
2019-02-22T15:05:33.507Z,9.77
2019-02-22T15:10:39.293Z,9.03
2019-02-22T15:16:06.000Z,9.00
2019-02-22T15:21:11.760Z,10.33
2019-02-22T15:26:17.640Z,8.93
2019-02-22T15:31:23.240Z,9.20
2019-02-22T15:36:28.668Z,9.40
2019-02-22T15:41:34.424Z,8.80
2019-02-22T15:46:40.254Z,11.17
2019-02-22T15:51:46.164Z,9.97
2019-02-22T15:56:51.934Z,9.40
2019-02-22T16:01:57.326Z,8.70
2019-02-22T16:07:03.249Z,8.13
2019-02-22T16:12:09.659Z,8.70
2019-02-22T16:17:16.019Z,7.70
2019-02-22T16:22:22.119Z,7.60
2019-02-22T16:27:28.232Z,8.00
2019-02-22T16:32:34.236Z,6.57
2019-02-22T16:37:39.597Z,6.80
2019-02-22T16:42:45.262Z,6.90
2019-02-22T16:47:51.724Z,7.10
2019-02-22T16:52:58.158Z,6.93
2019-02-22T16:58:04.023Z,6.93
2019-02-22T17:03:09.740Z,8.07
2019-02-22T17:08:16.007Z,7.67
2019-02-22T17:13:21.831Z,7.83
2019-02-22T17:18:27.552Z,7.97
2019-02-22T17:23:33.729Z,7.27
2019-02-22T17:28:40.227Z,8.93
2019-02-22T17:33:45.983Z,8.40
2019-02-22T17:38:51.843Z,7.50
2019-02-22T17:43:57.718Z,7.60
2019-02-22T17:49:03.324Z,6.90
2019-02-22T17:54:09.043Z,8.10
2019-02-22T17:59:14.394Z,8.27
2019-02-22T18:04:20.364Z,7.80
2019-02-22T18:09:26.592Z,7.30
2019-02-22T18:14:31.948Z,8.17
2019-02-22T18:19:37.355Z,8.73
2019-02-22T18:24:43.279Z,7.97
2019-02-22T18:29:48.875Z,7.27
2019-02-22T18:34:54.679Z,7.70
2019-02-22T18:40:00.740Z,7.33
2019-02-22T18:45:06.233Z,6.73
2019-02-22T18:50:11.932Z,8.07
2019-02-22T18:55:17.612Z,7.03
2019-02-22T19:00:23.465Z,6.83
2019-02-22T19:05:28.876Z,6.87
2019-02-22T19:10:34.933Z,6.23
2019-02-22T19:15:40.263Z,6.83
2019-02-22T19:20:47.788Z,6.87
2019-02-22T19:25:53.413Z,7.43
2019-02-22T19:30:59.204Z,7.03
2019-02-22T19:36:04.806Z,9.20
2019-02-22T19:41:10.843Z,8.20
2019-02-22T19:46:17.227Z,7.40
2019-02-22T19:51:22.779Z,7.20
2019-02-22T19:56:28.963Z,9.10
2019-02-22T20:01:34.721Z,7.90
2019-02-22T20:06:40.245Z,8.80
2019-02-22T20:11:48.024Z,8.97
2019-02-22T20:16:54.115Z,8.60
2019-02-22T20:22:00.513Z,8.60
2019-02-22T20:27:06.315Z,7.67
2019-02-22T20:32:11.708Z,7.93
2019-02-22T20:37:17.760Z,7.20
2019-02-22T20:42:23.517Z,7.27
2019-02-22T20:47:29.283Z,7.37
2019-02-22T20:52:35.507Z,6.77
2019-02-22T20:57:41.216Z,7.37
2019-02-22T21:02:46.643Z,6.50
2019-02-22T21:07:52.022Z,6.80
2019-02-22T21:12:57.990Z,5.93
2019-02-22T21:18:04.042Z,6.50
2019-02-22T21:23:10.463Z,6.77
2019-02-22T21:28:16.126Z,6.57
2019-02-22T21:33:21.937Z,6.40
2019-02-22T21:38:27.394Z,7.33
2019-02-22T21:43:32.786Z,6.47
2019-02-22T21:48:38.165Z,6.87
2019-02-22T21:53:43.525Z,6.43
2019-02-22T21:58:49.189Z,5.77
2019-02-22T22:03:54.634Z,8.27
2019-02-22T22:09:01.216Z,7.63
2019-02-22T22:14:06.522Z,7.17
2019-02-22T22:19:11.878Z,10.07
2019-02-22T22:24:17.532Z,8.10
2019-02-22T22:29:23.448Z,7.70
2019-02-22T22:34:28.850Z,6.13
2019-02-22T22:39:35.199Z,6.83
2019-02-22T22:44:40.614Z,6.37
2019-02-22T22:49:46.629Z,6.60
2019-02-22T22:54:52.279Z,6.57
2019-02-22T22:59:58.466Z,5.37
2019-02-22T23:05:04.223Z,5.67
2019-02-22T23:10:09.704Z,5.50
2019-02-22T23:15:15.037Z,5.40
2019-02-22T23:20:20.707Z,6.13
2019-02-22T23:25:27.193Z,5.77
2019-02-22T23:30:32.875Z,5.67
2019-02-22T23:35:38.158Z,6.33
2019-02-22T23:40:43.512Z,5.50
2019-02-22T23:45:48.850Z,6.10
2019-02-22T23:50:54.687Z,5.83
2019-02-22T23:56:00.877Z,6.37
